Terminal Aerodrome Forecast
Issued by NWS

Home | Current Version | Previous Version | Text Only | Print | Product List | Glossary Off
Versions: 1 2 3 4 5 6 7 8 9 10 11 12 13 14 15 16 17 18 19

000
FTUS43 KFGF 252321
TAFBJI
TAF
KBJI 252321Z 2600/2624 29016G23KT 2SM -DZ OVC010
     FM260100 29017KT 5SM -RA OVC015
     FM260500 29017KT 5SM BR VCSH OVC015
     FM260700 29017KT P6SM VCSH BKN040
     FM260900 29016KT P6SM BKN025
     FM261600 30018G26KT P6SM BKN025
     FM261800 30019G28KT P6SM BKN035=

USA.gov is the U.S. government's official web portal to all federal, state and local government web resources and services.